Stations météo

Publicité
Nimes/Courbessac, France (7645): Température de l'air & dewpoint: 16.01.2019 03:00:00 - 22.01.2019 03:00:00 (CET)Nimes/Courbessac, France (7645): Température de l'air 5cm: 16.01.2019 03:00:00 - 22.01.2019 03:00:00 (CET)Nimes/Courbessac, France (7645): Température de l'air -20cm: 16.01.2019 03:00:00 - 22.01.2019 03:00:00 (CET)Nimes/Courbessac, France (7645): Vitesse du vent & gusts: 16.01.2019 03:00:00 - 22.01.2019 03:00:00 (CET)Nimes/Courbessac, France (7645): Direction du vent: 16.01.2019 03:00:00 - 22.01.2019 03:00:00 (CET)Nimes/Courbessac, France (7645): reduced air pressure: 16.01.2019 03:00:00 - 22.01.2019 03:00:00 (CET)Nimes/Courbessac, France (7645): Ensoleillement: 16.01.2019 03:00:00 - 22.01.2019 03:00:00 (CET)Nimes/Courbessac, France (7645): Quantités de précipitations: 16.01.2019 03:00:00 - 22.01.2019 03:00:00 (CET)
Date & Time tt [°C] td [°C] tt 5cm [°C] tt -20cm [°C] ff [km/h] ff [knt] fx [km/h] fx [knt] dd ppp [hPa] sd [min] rr [mm]
22.01.2019 03:00:00 2,9 -2,6 - - 9 5 34 18 NNW 1015,4 - 0,0
22.01.2019 02:00:00 2,6 -1,2 1,3 6,0 13 7 30 16 NNW 1015,9 0 0,0
22.01.2019 01:00:00 2,6 -1,0 1,3 6,1 10 5 30 16 N 1016,7 0 0,0
22.01.2019 00:00:00 2,5 -0,8 1,3 6,1 11 6 28 15 N 1017,0 0 0,0
21.01.2019 23:00:00 2,7 0,3 1,7 6,2 10 6 32 18 N 1017,1 0 0,0
21.01.2019 22:00:00 3,2 0,4 2,3 6,2 15 8 32 17 N 1016,7 0 0,0
21.01.2019 21:00:00 3,9 0,1 2,1 6,3 16 9 27 14 N 1016,8 0 0,0
21.01.2019 20:00:00 3,7 0,2 2,7 6,3 10 5 25 14 N 1016,9 0 0,0
21.01.2019 19:00:00 5,1 0,5 4,3 6,2 15 8 32 17 N 1016,2 0 0,0
21.01.2019 18:00:00 6,3 0,2 5,5 6,2 15 8 31 17 N 1015,8 0 0,0
21.01.2019 17:00:00 8,2 0,4 7,4 6,1 13 7 34 19 NNE 1015,8 60 0,0
21.01.2019 16:00:00 10,0 -0,5 12,2 6,0 21 11 39 21 NNE 1015,5 60 0,0
21.01.2019 15:00:00 10,7 0,1 13,3 5,9 16 9 40 21 N 1015,6 60 0,0
21.01.2019 14:00:00 10,6 0,3 11,9 5,8 21 12 47 25 NNE 1015,8 60 0,0
21.01.2019 13:00:00 10,3 1,6 10,6 5,7 18 10 41 22 N 1016,0 60 0,0
21.01.2019 12:00:00 9,8 2,4 11,3 5,7 15 8 34 18 N 1016,6 60 0,0
21.01.2019 11:00:00 8,2 2,0 9,5 5,7 16 8 29 16 N 1017,0 60 0,0
21.01.2019 10:00:00 6,6 2,1 4,9 5,7 11 6 23 13 N 1016,8 60 0,0
21.01.2019 09:00:00 4,8 1,3 2,5 5,8 12 7 26 14 N 1016,4 26 0,2
21.01.2019 08:00:00 3,9 1,1 1,4 5,8 13 7 26 14 N 1015,9 0 0,0
21.01.2019 07:00:00 3,1 1,0 -0,2 5,9 8 5 16 8 N 1015,5 0 0,0
21.01.2019 06:00:00 3,2 0,9 0,9 6,0 5 3 20 11 N 1015,1 0 0,0
21.01.2019 05:00:00 3,5 1,2 -1,4 6,1 9 5 17 9 N 1015,0 0 0,0
21.01.2019 04:00:00 0,6 -1,2 -1,3 6,2 2 1 11 6 S 1015,2 0 0,0
21.01.2019 03:00:00 2,6 1,4 0,9 6,3 9 5 14 8 NNW 1015,5 0 0,0
21.01.2019 02:00:00 2,5 2,2 -2,9 6,4 10 6 16 9 NNW 1015,2 0 0,0
21.01.2019 01:00:00 0,0 -0,7 -2,2 6,5 0 0 5 3 N 1015,4 0 0,0
21.01.2019 00:00:00 0,5 -0,2 -2,1 6,6 0 0 4 2 N 1015,4 0 0,0
20.01.2019 23:00:00 0,7 0,0 -1,9 6,7 0 0 4 2 N 1015,1 0 0,0
20.01.2019 22:00:00 1,7 0,5 -1,0 6,8 0 0 8 5 N 1014,8 0 0,0
20.01.2019 21:00:00 1,8 0,3 -0,6 6,8 0 0 8 5 N 1014,8 0 0,0
20.01.2019 20:00:00 3,5 1,4 1,0 6,9 2 1 8 5 NNW 1014,4 0 0,0
20.01.2019 19:00:00 5,1 2,6 3,3 6,8 6 3 14 7 NNW 1014,1 0 0,0
20.01.2019 18:00:00 5,8 3,8 4,4 6,8 7 4 13 7 NW 1013,5 0 0,0
20.01.2019 17:00:00 6,6 4,1 5,5 6,7 4 2 8 5 WNW 1013,3 0 0,0
20.01.2019 16:00:00 7,8 3,8 7,5 6,6 4 2 6 3 W 1013,1 0 0,0
20.01.2019 15:00:00 7,8 3,8 7,6 6,5 3 1 5 3 WNW 1013,0 0 0,0
20.01.2019 14:00:00 7,8 4,7 7,6 6,4 2 1 8 4 N 1013,0 0 0,0
20.01.2019 13:00:00 7,9 3,5 7,0 6,3 2 1 10 5 NNE 1013,4 0 0,0
20.01.2019 12:00:00 7,7 4,3 7,3 6,3 4 2 13 7 NNE 1013,6 0 0,0
20.01.2019 11:00:00 6,5 4,7 4,9 6,3 6 4 16 9 N 1013,3 0 0,2
20.01.2019 10:00:00 5,2 3,7 4,5 6,2 11 6 16 9 N 1012,8 0 0,4
20.01.2019 09:00:00 5,0 3,2 4,3 6,2 6 4 14 7 N 1012,5 0 0,0
20.01.2019 08:00:00 5,0 3,3 4,1 6,2 7 4 18 10 N 1012,0 0 0,0
20.01.2019 07:00:00 5,1 3,1 4,3 6,2 9 5 14 8 N 1011,8 0 1,0
20.01.2019 06:00:00 5,9 2,2 4,5 6,2 11 6 20 11 NE 1011,6 0 0,0
20.01.2019 05:00:00 5,4 1,5 4,6 6,2 11 6 19 10 NE 1011,8 0 0,0
20.01.2019 04:00:00 5,4 1,7 4,8 6,3 8 5 16 8 NE 1012,2 0 0,0
20.01.2019 03:00:00 5,8 1,9 5,3 6,3 9 5 16 9 NE 1012,4 0 0,0
20.01.2019 02:00:00 5,6 1,5 3,5 6,3 8 4 14 8 NE 1012,3 0 0,0
20.01.2019 01:00:00 4,5 -0,3 3,0 6,3 5 3 8 4 N 1012,9 0 0,0
20.01.2019 00:00:00 4,2 -0,6 3,0 6,3 3 1 6 4 NE 1013,0 0 0,0
19.01.2019 23:00:00 4,5 -0,5 2,6 6,3 6 3 8 4 N 1013,0 0 0,0
19.01.2019 22:00:00 4,9 -0,1 3,9 6,3 0 0 6 3 N 1013,1 0 0,0
19.01.2019 21:00:00 5,8 -0,1 4,3 6,3 2 1 10 6 SW 1012,7 0 0,0
19.01.2019 20:00:00 5,1 -0,1 4,2 6,3 2 1 7 4 N 1012,7 0 0,0
19.01.2019 19:00:00 5,7 0,0 4,8 6,3 5 3 7 4 NNW 1012,5 0 0,0
19.01.2019 18:00:00 6,3 0,0 4,0 6,2 4 2 10 5 NNW 1012,4 0 0,0
19.01.2019 17:00:00 10,1 -1,6 7,6 6,1 5 3 10 6 SSW 1012,4 53 0,0
19.01.2019 16:00:00 12,0 -1,2 15,6 6,0 6 3 11 6 SSW 1012,5 60 0,0
19.01.2019 15:00:00 12,4 -1,2 15,6 5,9 3 2 10 6 S 1012,8 60 0,0
19.01.2019 14:00:00 11,3 -1,2 11,5 5,8 4 2 11 6 SE 1013,4 60 0,0
19.01.2019 13:00:00 10,1 -2,3 10,6 5,7 4 2 11 6 N 1014,2 60 0,0
19.01.2019 12:00:00 8,5 -1,9 9,0 5,7 9 5 19 10 ENE 1015,2 60 0,0
19.01.2019 11:00:00 5,9 -3,2 6,0 5,8 10 5 30 16 NNE 1015,8 60 0,0
19.01.2019 10:00:00 3,0 -3,8 0,3 5,9 16 9 27 15 NNW 1015,6 56 0,0
19.01.2019 09:00:00 0,5 -4,2 -1,7 6,0 0 0 18 10 N 1015,5 14 0,0
19.01.2019 08:00:00 0,5 -4,2 -0,9 6,1 10 5 22 12 N 1015,0 0 0,0
19.01.2019 07:00:00 0,6 -4,2 -0,3 6,2 14 8 24 13 N 1015,0 0 0,0
19.01.2019 06:00:00 0,9 -4,2 -0,4 6,3 14 7 23 12 N 1015,1 0 0,0
19.01.2019 05:00:00 1,3 -4,4 0,1 6,4 10 5 18 10 N 1015,3 0 0,0
19.01.2019 04:00:00 2,0 -4,3 0,7 6,5 9 5 20 11 NNW 1015,7 0 0,0
19.01.2019 03:00:00 1,9 -4,2 -1,1 6,6 9 5 15 8 N 1016,1 0 0,0
19.01.2019 02:00:00 1,0 -4,6 -1,0 6,7 2 1 18 10 N 1016,1 0 0,0
19.01.2019 01:00:00 2,5 -4,5 0,3 6,7 9 5 19 11 NNW 1016,3 0 0,0
19.01.2019 00:00:00 3,3 -4,4 2,5 6,8 10 5 19 11 NNW 1016,3 0 0,0
18.01.2019 23:00:00 3,2 -4,3 0,7 6,9 9 5 18 10 NNE 1016,0 0 0,0
18.01.2019 22:00:00 2,4 -4,1 -1,1 7,0 7 4 15 8 NNE 1016,1 0 0,0
18.01.2019 21:00:00 1,8 -6,1 -0,7 7,1 5 3 9 5 NE 1016,1 0 0,0
18.01.2019 20:00:00 4,6 -6,6 3,4 7,1 8 5 22 12 N 1015,6 0 0,0
18.01.2019 19:00:00 5,4 -6,5 4,6 7,1 11 6 23 12 NNW 1015,8 0 0,0
18.01.2019 18:00:00 5,5 -5,5 4,7 7,1 9 5 21 12 N 1015,4 0 0,0
18.01.2019 17:00:00 6,2 -3,7 5,5 7,0 8 4 20 11 NNE 1015,3 0 0,0
18.01.2019 16:00:00 8,0 -2,1 8,5 7,0 14 8 24 13 NNE 1015,1 14 0,0
18.01.2019 15:00:00 9,6 -3,7 10,2 6,9 13 7 22 12 NNE 1015,4 36 0,0
18.01.2019 14:00:00 8,9 -2,7 9,6 6,9 13 7 33 18 N 1015,8 10 0,0
18.01.2019 13:00:00 8,6 -3,6 9,4 6,8 13 7 35 19 N 1016,2 12 0,0
18.01.2019 12:00:00 9,2 -3,4 10,6 6,8 19 10 37 20 N 1016,8 60 0,0
18.01.2019 11:00:00 7,6 0,1 7,7 6,9 13 7 23 12 N 1017,5 58 0,0
18.01.2019 10:00:00 6,1 0,2 4,0 7,0 13 7 24 13 N 1017,7 60 0,0
18.01.2019 09:00:00 3,8 -2,6 1,7 7,1 10 6 19 10 N 1017,2 24 0,0
18.01.2019 08:00:00 2,7 -2,8 1,2 7,2 9 5 21 11 NNW 1017,1 0 0,0
18.01.2019 07:00:00 3,7 -2,9 2,7 7,3 12 6 24 13 NNW 1017,0 0 0,0
18.01.2019 06:00:00 4,6 -2,7 3,2 7,4 14 7 30 16 NW 1016,7 0 0,0
18.01.2019 05:00:00 4,1 -2,5 2,4 7,5 15 8 26 14 NW 1016,8 0 0,0
18.01.2019 04:00:00 4,9 -2,5 3,4 7,7 13 7 21 11 NW 1017,2 0 0,0
18.01.2019 03:00:00 4,5 -2,4 2,1 7,7 11 6 17 9 WNW 1017,2 0 0,0
18.01.2019 02:00:00 4,1 -1,9 2,9 7,8 9 5 17 9 WNW 1017,3 0 0,0
18.01.2019 01:00:00 6,0 -1,6 4,8 8,0 11 6 22 12 NW 1017,5 0 0,0
18.01.2019 00:00:00 6,2 -1,0 5,1 8,0 10 5 28 15 NW 1017,5 0 0,0
17.01.2019 23:00:00 6,7 -0,1 5,0 8,1 15 8 27 15 NNW 1017,2 0 0,0
17.01.2019 22:00:00 6,4 -0,4 4,9 8,2 11 6 19 11 NNW 1016,7 0 0,0
17.01.2019 21:00:00 7,0 0,0 4,9 8,2 9 5 18 10 NNW 1016,2 0 0,0
17.01.2019 20:00:00 8,7 0,2 7,5 8,2 9 5 18 10 NW 1015,9 0 0,0
17.01.2019 19:00:00 9,5 0,1 8,5 8,2 9 5 21 11 NW 1015,4 0 0,0
17.01.2019 18:00:00 10,3 -0,2 9,3 8,1 11 6 20 11 NW 1014,9 0 0,0
17.01.2019 17:00:00 11,6 0,4 11,1 8,0 11 6 27 14 NW 1014,5 2 0,0
17.01.2019 16:00:00 13,0 1,3 13,4 7,9 11 6 31 17 WNW 1014,2 18 0,0
17.01.2019 15:00:00 14,0 2,9 14,6 7,7 12 7 28 15 WNW 1013,7 5 0,0
17.01.2019 14:00:00 14,4 4,7 14,8 7,6 9 5 23 12 WNW 1013,8 42 0,0
17.01.2019 13:00:00 13,2 4,6 15,0 7,4 8 4 14 8 W 1014,3 31 0,0
17.01.2019 12:00:00 13,2 7,6 13,5 7,4 6 3 10 5 S 1015,0 60 0,0
17.01.2019 11:00:00 11,0 7,9 9,7 7,3 4 2 8 4 SSE 1015,6 26 0,0
17.01.2019 10:00:00 9,2 7,3 8,1 7,3 3 2 7 4 NNE 1015,2 24 0,0
17.01.2019 09:00:00 8,0 6,6 7,2 7,3 4 2 10 6 NNW 1015,2 0 0,0
17.01.2019 08:00:00 8,0 6,6 7,0 7,3 2 1 9 5 NW 1014,9 0 0,0
17.01.2019 07:00:00 8,1 6,7 7,1 7,2 2 1 9 5 NNW 1014,7 0 0,0
17.01.2019 06:00:00 8,2 6,8 7,2 7,2 0 0 11 6 N 1014,7 0 0,0
17.01.2019 05:00:00 7,9 6,7 6,0 7,2 8 4 11 6 NNW 1014,7 0 0,0
17.01.2019 04:00:00 8,6 7,2 7,9 7,2 7 4 13 7 N 1015,3 0 0,0
17.01.2019 03:00:00 8,9 7,5 8,1 7,1 3 1 7 4 N 1015,8 0 0,0
17.01.2019 02:00:00 8,8 7,4 8,1 7,1 5 3 7 4 NNE 1016,1 0 0,2
17.01.2019 01:00:00 9,3 6,9 8,3 7,0 0 0 14 8 N 1016,6 0 0,2
17.01.2019 00:00:00 9,2 7,0 8,3 7,0 4 2 11 6 NE 1017,0 0 0,0
16.01.2019 23:00:00 9,6 6,5 9,1 6,9 8 4 18 10 ENE 1017,4 0 0,0
16.01.2019 22:00:00 9,6 7,0 8,9 6,9 9 5 13 7 E 1017,4 0 0,0
16.01.2019 21:00:00 10,0 6,9 9,1 6,8 8 5 16 9 E 1017,2 0 0,0
16.01.2019 20:00:00 10,3 6,4 9,3 6,7 6 3 9 5 ENE 1017,3 0 0,0
16.01.2019 19:00:00 10,1 6,4 9,3 6,6 6 3 10 5 ESE 1017,3 0 0,0
16.01.2019 18:00:00 10,8 6,2 9,5 6,5 3 1 11 6 S 1017,4 0 0,0
16.01.2019 17:00:00 11,5 6,0 10,9 6,4 9 5 17 9 S 1017,3 16 0,0
16.01.2019 16:00:00 13,1 6,0 12,9 6,2 9 5 17 9 SSE 1017,3 30 0,0
16.01.2019 15:00:00 13,6 6,0 14,0 6,0 9 5 18 10 ESE 1017,5 24 0,0
16.01.2019 14:00:00 12,5 5,2 13,4 5,8 7 4 13 7 ESE 1018,1 24 0,0
16.01.2019 13:00:00 12,9 4,3 12,8 5,7 8 4 15 8 E 1018,8 60 0,0
16.01.2019 12:00:00 11,1 2,9 11,9 5,7 9 5 17 9 E 1019,6 60 0,0
16.01.2019 11:00:00 9,5 1,6 10,6 5,8 10 6 15 8 E 1020,4 60 0,0
16.01.2019 10:00:00 6,5 0,8 1,3 5,8 4 2 8 4 NNW 1020,5 60 0,0
16.01.2019 09:00:00 2,6 -1,2 0,9 5,9 0 0 13 7 N 1020,3 23 0,0
16.01.2019 08:00:00 1,8 -1,6 0,5 6,0 9 5 14 8 NNW 1020,0 0 0,0
16.01.2019 07:00:00 2,2 -1,6 0,8 6,1 10 5 16 9 NNW 1020,0 0 0,0
16.01.2019 06:00:00 2,1 -1,7 -2,1 6,2 7 4 15 8 N 1019,9 0 0,0
16.01.2019 05:00:00 0,8 -1,9 -2,3 6,3 0 0 9 5 N 1020,4 0 0,0
16.01.2019 04:00:00 1,4 -1,7 -2,8 6,5 6 3 9 5 NNW 1020,6 0 0,0
16.01.2019 03:00:00 0,7 -2,0 -2,4 6,5 2 1 7 4 NE 1020,8 0 0,0

tt = Température de l'air
td = dewpoint
tt 5cm = Température de l'air 5cm
tt -20cm = Température de l'air -20cm
ff = Vitesse du vent
fx = gusts
dd = Direction du vent
ppp = reduced air pressure
sd = Ensoleillement
rr = Quantités de précipitations

stations d'obs. à proximité